KMIA/MIA METAR and TAF weather

Enter ICAO airport designator
Station Type Date Time Source
KMIA METAR 2022/06/29 00:53 UTC NOAA

KMIA 290053Z 10008KT 10SM FEW032 FEW110 BKN250 28/22 A3009 RMK AO2 SLP188 CONS LTGIC DSNT W CB DSNT W T02830222 $


Station Type Date Time Source
KMIA Decoded METAR 2022/06/29 00:53 UTC NOAA

MIAMI INTERNATIONAL AIRPORT , FL, United States (KMIA) 25-47N 080-19W 8M
Jun 28, 2022 - 08:53 PM EDT / 2022.06.29 0053 UTC
Wind: from the E (100 degrees) at 9 MPH (8 KT):0
Visibility: 10 mile(s):0
Sky conditions: mostly cloudy
Weather: Cumulonimbus clouds, lightning observed
Temperature: 82.9 F (28.3 C)
Dew Point: 72.0 F (22.2 C)
Relative Humidity: 69%
Pressure (altimeter): 30.09 in. Hg (1018 hPa)
ob: KMIA 290053Z 10008KT 10SM FEW032 FEW110 BKN250 28/22 A3009 RMK AO2 SLP188 CONS LTGIC DSNT W CB DSNT W T02830222
cycle: 1

Station Type Date Time Source
KMIA TAF 2022/06/28 21:54 UTC NOAA

TAF
AMD KMIA 282051Z 2821/2924 11009KT P6SM FEW025 FEW250
FM290300 VRB05KT P6SM FEW025
FM291500 11010KT P6SM SCT025
FM291700 12010KT P6SM VCTS SCT025CB BKN060

Example: see airport list